sensor_id;sensor_type;location;lat;lon;timestamp;pressure;altitude;pressure_sealevel;temperature;humidity
10460;BME280;54412;51.206;6.888;2023-04-27T00:01:14;101245.84;;;8.92;57.55
10460;BME280;54412;51.206;6.888;2023-04-27T00:03:41;101240.78;;;8.86;57.55
10460;BME280;54412;51.206;6.888;2023-04-27T00:06:07;101247.66;;;8.90;57.59
10460;BME280;54412;51.206;6.888;2023-04-27T00:08:34;101242.09;;;8.99;57.61
10460;BME280;54412;51.206;6.888;2023-04-27T00:10:59;101236.38;;;8.86;57.69
10460;BME280;54412;51.206;6.888;2023-04-27T00:13:26;101237.84;;;8.95;57.30
10460;BME280;54412;51.206;6.888;2023-04-27T00:15:52;101233.59;;;8.91;57.35
10460;BME280;54412;51.206;6.888;2023-04-27T00:18:18;101244.84;;;8.96;57.14
10460;BME280;54412;51.206;6.888;2023-04-27T00:20:43;101244.28;;;8.86;57.65
10460;BME280;54412;51.206;6.888;2023-04-27T00:23:09;101238.00;;;8.90;57.30
10460;BME280;54412;51.206;6.888;2023-04-27T00:25:35;101246.84;;;8.88;57.24
10460;BME280;54412;51.206;6.888;2023-04-27T00:28:01;101249.78;;;8.51;57.89
10460;BME280;54412;51.206;6.888;2023-04-27T00:30:27;101246.03;;;8.86;57.01
10460;BME280;54412;51.206;6.888;2023-04-27T00:32:53;101246.38;;;9.01;56.61
10460;BME280;54412;51.206;6.888;2023-04-27T00:35:19;101247.84;;;8.84;56.97
10460;BME280;54412;51.206;6.888;2023-04-27T00:37:44;101249.84;;;8.77;56.95
10460;BME280;54412;51.206;6.888;2023-04-27T00:40:11;101247.16;;;8.79;57.15
10460;BME280;54412;51.206;6.888;2023-04-27T00:42:36;101254.75;;;8.62;57.42
10460;BME280;54412;51.206;6.888;2023-04-27T00:45:02;101258.25;;;8.61;57.54
10460;BME280;54412;51.206;6.888;2023-04-27T00:47:30;101254.88;;;8.57;57.73
10460;BME280;54412;51.206;6.888;2023-04-27T00:49:55;101259.50;;;8.77;56.92
10460;BME280;54412;51.206;6.888;2023-04-27T00:52:21;101251.72;;;8.74;56.89
10460;BME280;54412;51.206;6.888;2023-04-27T00:54:50;101251.00;;;8.95;56.73
10460;BME280;54412;51.206;6.888;2023-04-27T00:57:16;101242.22;;;8.96;56.36
10460;BME280;54412;51.206;6.888;2023-04-27T00:59:42;101246.03;;;8.60;57.39
10460;BME280;54412;51.206;6.888;2023-04-27T01:02:09;101250.59;;;8.81;56.72
10460;BME280;54412;51.206;6.888;2023-04-27T01:04:36;101250.13;;;8.68;56.59
10460;BME280;54412;51.206;6.888;2023-04-27T01:07:03;101248.56;;;8.63;57.19
10460;BME280;54412;51.206;6.888;2023-04-27T01:09:28;101251.00;;;8.69;57.11
10460;BME280;54412;51.206;6.888;2023-04-27T01:11:54;101252.59;;;8.73;56.96
10460;BME280;54412;51.206;6.888;2023-04-27T01:14:20;101253.88;;;8.61;57.29
10460;BME280;54412;51.206;6.888;2023-04-27T01:16:46;101245.53;;;8.75;56.73
10460;BME280;54412;51.206;6.888;2023-04-27T01:19:12;101240.22;;;8.76;56.82
10460;BME280;54412;51.206;6.888;2023-04-27T01:21:37;101241.31;;;8.69;57.06
10460;BME280;54412;51.206;6.888;2023-04-27T01:24:05;101243.19;;;8.66;57.06
10460;BME280;54412;51.206;6.888;2023-04-27T01:26:32;101246.75;;;8.65;57.26
10460;BME280;54412;51.206;6.888;2023-04-27T01:28:58;101243.88;;;8.72;57.27
10460;BME280;54412;51.206;6.888;2023-04-27T01:31:24;101247.25;;;8.76;57.04
10460;BME280;54412;51.206;6.888;2023-04-27T01:33:50;101252.88;;;8.65;56.82
10460;BME280;54412;51.206;6.888;2023-04-27T01:36:16;101244.47;;;8.54;57.30
10460;BME280;54412;51.206;6.888;2023-04-27T01:38:42;101241.59;;;8.34;57.82
10460;BME280;54412;51.206;6.888;2023-04-27T01:41:08;101248.56;;;8.35;57.58
10460;BME280;54412;51.206;6.888;2023-04-27T01:43:35;101249.66;;;8.28;57.85
10460;BME280;54412;51.206;6.888;2023-04-27T01:46:09;101246.47;;;8.46;57.62
10460;BME280;54412;51.206;6.888;2023-04-27T01:48:37;101243.25;;;8.36;57.70
10460;BME280;54412;51.206;6.888;2023-04-27T01:51:03;101251.06;;;8.10;58.33
10460;BME280;54412;51.206;6.888;2023-04-27T01:53:29;101253.63;;;8.12;58.58
10460;BME280;54412;51.206;6.888;2023-04-27T01:55:55;101258.44;;;7.98;59.15
10460;BME280;54412;51.206;6.888;2023-04-27T01:58:21;101262.75;;;8.00;59.02
10460;BME280;54412;51.206;6.888;2023-04-27T02:00:47;101268.22;;;7.93;59.20
10460;BME280;54412;51.206;6.888;2023-04-27T02:03:12;101274.03;;;8.04;58.61
10460;BME280;54412;51.206;6.888;2023-04-27T02:05:38;101269.28;;;8.16;58.21
10460;BME280;54412;51.206;6.888;2023-04-27T02:08:04;101274.31;;;8.24;58.08
10460;BME280;54412;51.206;6.888;2023-04-27T02:10:30;101273.31;;;8.28;57.66
10460;BME280;54412;51.206;6.888;2023-04-27T02:12:56;101272.13;;;8.09;58.49
10460;BME280;54412;51.206;6.888;2023-04-27T02:15:22;101279.19;;;8.07;58.47
10460;BME280;54412;51.206;6.888;2023-04-27T02:17:48;101274.53;;;8.16;58.11
10460;BME280;54412;51.206;6.888;2023-04-27T02:20:13;101270.94;;;8.19;58.18
10460;BME280;54412;51.206;6.888;2023-04-27T02:22:43;101265.22;;;8.05;58.37
10460;BME280;54412;51.206;6.888;2023-04-27T02:25:10;101265.44;;;7.97;58.63
10460;BME280;54412;51.206;6.888;2023-04-27T02:27:37;101269.16;;;7.90;58.66
10460;BME280;54412;51.206;6.888;2023-04-27T02:32:31;101267.03;;;8.03;58.37
10460;BME280;54412;51.206;6.888;2023-04-27T02:34:57;101268.28;;;7.91;58.61
10460;BME280;54412;51.206;6.888;2023-04-27T02:37:23;101268.19;;;7.94;59.12
10460;BME280;54412;51.206;6.888;2023-04-27T02:39:48;101265.59;;;7.93;59.05
10460;BME280;54412;51.206;6.888;2023-04-27T02:42:14;101269.06;;;7.93;58.90
10460;BME280;54412;51.206;6.888;2023-04-27T02:44:41;101269.94;;;7.94;58.90
10460;BME280;54412;51.206;6.888;2023-04-27T02:47:06;101260.28;;;7.94;59.04
10460;BME280;54412;51.206;6.888;2023-04-27T02:49:32;101260.47;;;7.58;59.91
10460;BME280;54412;51.206;6.888;2023-04-27T02:51:58;101263.19;;;7.85;59.64
10460;BME280;54412;51.206;6.888;2023-04-27T02:54:23;101256.09;;;7.58;59.90
10460;BME280;54412;51.206;6.888;2023-04-27T02:56:50;101259.84;;;7.80;59.52
10460;BME280;54412;51.206;6.888;2023-04-27T02:59:16;101257.00;;;7.57;60.18
10460;BME280;54412;51.206;6.888;2023-04-27T03:01:41;101252.78;;;7.81;59.68
10460;BME280;54412;51.206;6.888;2023-04-27T03:04:07;101253.09;;;7.70;59.64
10460;BME280;54412;51.206;6.888;2023-04-27T03:06:33;101248.41;;;7.81;59.31
10460;BME280;54412;51.206;6.888;2023-04-27T03:08:59;101244.97;;;7.50;59.93
10460;BME280;54412;51.206;6.888;2023-04-27T03:11:25;101238.38;;;7.66;59.75
10460;BME280;54412;51.206;6.888;2023-04-27T03:13:50;101240.75;;;7.74;59.45
10460;BME280;54412;51.206;6.888;2023-04-27T03:16:16;101242.84;;;7.92;59.27
10460;BME280;54412;51.206;6.888;2023-04-27T03:18:42;101246.38;;;7.91;59.28
10460;BME280;54412;51.206;6.888;2023-04-27T03:21:09;101242.34;;;7.79;59.60
10460;BME280;54412;51.206;6.888;2023-04-27T03:23:35;101247.78;;;7.73;59.71
10460;BME280;54412;51.206;6.888;2023-04-27T03:26:12;101246.66;;;7.82;59.24
10460;BME280;54412;51.206;6.888;2023-04-27T03:28:39;101251.13;;;7.78;59.31
10460;BME280;54412;51.206;6.888;2023-04-27T03:31:06;101249.50;;;7.74;59.59
10460;BME280;54412;51.206;6.888;2023-04-27T03:33:33;101249.03;;;7.91;59.09
10460;BME280;54412;51.206;6.888;2023-04-27T03:35:59;101252.84;;;7.79;59.43
10460;BME280;54412;51.206;6.888;2023-04-27T03:38:26;101253.38;;;7.61;59.74
10460;BME280;54412;51.206;6.888;2023-04-27T03:40:53;101249.91;;;7.59;59.98
10460;BME280;54412;51.206;6.888;2023-04-27T03:43:20;101253.88;;;7.75;59.68
10460;BME280;54412;51.206;6.888;2023-04-27T03:45:46;101244.97;;;7.79;59.81
10460;BME280;54412;51.206;6.888;2023-04-27T03:48:13;101260.97;;;7.70;59.69
10460;BME280;54412;51.206;6.888;2023-04-27T03:50:40;101252.59;;;7.58;60.24
10460;BME280;54412;51.206;6.888;2023-04-27T03:53:06;101249.38;;;7.79;59.99
10460;BME280;54412;51.206;6.888;2023-04-27T03:55:32;101250.22;;;7.79;59.48
10460;BME280;54412;51.206;6.888;2023-04-27T03:57:58;101260.59;;;7.53;60.49
10460;BME280;54412;51.206;6.888;2023-04-27T04:00:24;101258.56;;;7.64;60.20
10460;BME280;54412;51.206;6.888;2023-04-27T04:02:49;101258.38;;;7.38;61.07
10460;BME280;54412;51.206;6.888;2023-04-27T04:05:17;101259.75;;;7.53;60.49
10460;BME280;54412;51.206;6.888;2023-04-27T04:07:43;101265.34;;;7.71;60.45
10460;BME280;54412;51.206;6.888;2023-04-27T04:10:10;101269.88;;;7.97;60.20
10460;BME280;54412;51.206;6.888;2023-04-27T04:12:36;101273.81;;;8.10;59.90
10460;BME280;54412;51.206;6.888;2023-04-27T04:15:03;101269.16;;;8.19;59.47
10460;BME280;54412;51.206;6.888;2023-04-27T04:17:29;101275.38;;;8.17;59.37
10460;BME280;54412;51.206;6.888;2023-04-27T04:19:55;101277.00;;;8.21;59.01
10460;BME280;54412;51.206;6.888;2023-04-27T04:22:20;101275.75;;;8.05;59.35
10460;BME280;54412;51.206;6.888;2023-04-27T04:24:46;101274.66;;;8.12;59.25
10460;BME280;54412;51.206;6.888;2023-04-27T04:27:12;101275.06;;;7.98;59.35
10460;BME280;54412;51.206;6.888;2023-04-27T04:29:38;101277.31;;;7.81;59.84
10460;BME280;54412;51.206;6.888;2023-04-27T04:32:04;101280.28;;;7.69;59.95
10460;BME280;54412;51.206;6.888;2023-04-27T04:34:29;101277.66;;;7.69;60.17
10460;BME280;54412;51.206;6.888;2023-04-27T04:36:55;101281.69;;;7.50;60.72
10460;BME280;54412;51.206;6.888;2023-04-27T04:39:24;101281.97;;;7.39;60.92
10460;BME280;54412;51.206;6.888;2023-04-27T04:41:51;101288.88;;;7.43;61.12
10460;BME280;54412;51.206;6.888;2023-04-27T04:44:17;101283.06;;;7.63;60.75
10460;BME280;54412;51.206;6.888;2023-04-27T04:46:44;101297.75;;;7.70;60.09
10460;BME280;54412;51.206;6.888;2023-04-27T04:49:10;101293.66;;;7.60;60.56
10460;BME280;54412;51.206;6.888;2023-04-27T04:51:36;101291.00;;;7.62;60.54
10460;BME280;54412;51.206;6.888;2023-04-27T04:54:06;101295.88;;;7.75;60.27
10460;BME280;54412;51.206;6.888;2023-04-27T04:56:31;101283.84;;;7.67;60.85
10460;BME280;54412;51.206;6.888;2023-04-27T04:58:57;101282.91;;;7.69;60.60
10460;BME280;54412;51.206;6.888;2023-04-27T05:01:23;101293.28;;;7.74;60.74
10460;BME280;54412;51.206;6.888;2023-04-27T05:03:48;101294.28;;;7.68;60.93
10460;BME280;54412;51.206;6.888;2023-04-27T05:06:14;101283.47;;;7.80;60.56
10460;BME280;54412;51.206;6.888;2023-04-27T05:08:40;101282.50;;;7.83;60.53
10460;BME280;54412;51.206;6.888;2023-04-27T05:11:05;101288.78;;;8.08;59.48
10460;BME280;54412;51.206;6.888;2023-04-27T05:13:31;101292.81;;;7.90;59.80
10460;BME280;54412;51.206;6.888;2023-04-27T05:15:57;101296.53;;;8.12;59.40
10460;BME280;54412;51.206;6.888;2023-04-27T05:18:22;101295.56;;;7.86;60.54
10460;BME280;54412;51.206;6.888;2023-04-27T05:20:48;101300.47;;;7.98;59.95
10460;BME280;54412;51.206;6.888;2023-04-27T05:23:13;101309.22;;;7.98;60.01
10460;BME280;54412;51.206;6.888;2023-04-27T05:25:39;101309.72;;;8.11;60.13
10460;BME280;54412;51.206;6.888;2023-04-27T05:28:09;101307.94;;;8.11;60.17
10460;BME280;54412;51.206;6.888;2023-04-27T05:30:35;101311.69;;;8.03;60.44
10460;BME280;54412;51.206;6.888;2023-04-27T05:33:02;101312.84;;;8.25;59.76
10460;BME280;54412;51.206;6.888;2023-04-27T05:35:29;101308.69;;;8.16;60.17
10460;BME280;54412;51.206;6.888;2023-04-27T05:37:56;101313.50;;;8.31;59.90
10460;BME280;54412;51.206;6.888;2023-04-27T05:40:22;101314.22;;;8.36;59.60
10460;BME280;54412;51.206;6.888;2023-04-27T05:42:48;101315.53;;;8.22;59.85
10460;BME280;54412;51.206;6.888;2023-04-27T05:45:14;101320.44;;;8.34;60.04
10460;BME280;54412;51.206;6.888;2023-04-27T05:47:40;101318.91;;;8.55;58.97
10460;BME280;54412;51.206;6.888;2023-04-27T05:50:07;101322.09;;;8.36;60.01
10460;BME280;54412;51.206;6.888;2023-04-27T05:52:33;101320.16;;;8.43;59.64
10460;BME280;54412;51.206;6.888;2023-04-27T05:54:59;101320.22;;;8.41;60.08
10460;BME280;54412;51.206;6.888;2023-04-27T05:57:25;101325.91;;;8.56;59.07
10460;BME280;54412;51.206;6.888;2023-04-27T05:59:51;101322.03;;;8.67;58.77
10460;BME280;54412;51.206;6.888;2023-04-27T06:02:18;101328.44;;;8.59;59.29
10460;BME280;54412;51.206;6.888;2023-04-27T06:04:45;101327.94;;;8.75;58.89
10460;BME280;54412;51.206;6.888;2023-04-27T06:07:12;101334.00;;;8.77;58.79
10460;BME280;54412;51.206;6.888;2023-04-27T06:09:39;101335.88;;;9.00;58.40
10460;BME280;54412;51.206;6.888;2023-04-27T06:12:07;101332.53;;;9.22;57.16
10460;BME280;54412;51.206;6.888;2023-04-27T06:14:35;101333.09;;;9.30;57.01
10460;BME280;54412;51.206;6.888;2023-04-27T06:17:02;101336.56;;;9.32;56.98
10460;BME280;54412;51.206;6.888;2023-04-27T06:19:28;101337.38;;;9.34;57.05
10460;BME280;54412;51.206;6.888;2023-04-27T06:21:55;101341.38;;;9.46;56.83
10460;BME280;54412;51.206;6.888;2023-04-27T06:24:21;101344.16;;;9.41;57.17
10460;BME280;54412;51.206;6.888;2023-04-27T06:26:48;101334.22;;;9.49;56.38
10460;BME280;54412;51.206;6.888;2023-04-27T06:29:14;101334.41;;;9.43;56.61
10460;BME280;54412;51.206;6.888;2023-04-27T06:31:40;101330.34;;;9.60;56.64
10460;BME280;54412;51.206;6.888;2023-04-27T06:34:06;101338.56;;;9.75;56.27
10460;BME280;54412;51.206;6.888;2023-04-27T06:36:32;101336.25;;;9.66;56.31
10460;BME280;54412;51.206;6.888;2023-04-27T06:38:57;101321.94;;;9.98;55.66
10460;BME280;54412;51.206;6.888;2023-04-27T06:41:25;101332.53;;;9.96;55.73
10460;BME280;54412;51.206;6.888;2023-04-27T06:43:52;101333.47;;;10.20;55.01
10460;BME280;54412;51.206;6.888;2023-04-27T06:46:18;101339.31;;;10.03;55.42
10460;BME280;54412;51.206;6.888;2023-04-27T06:48:45;101336.84;;;10.23;54.75
10460;BME280;54412;51.206;6.888;2023-04-27T06:51:11;101335.28;;;10.41;54.95
10460;BME280;54412;51.206;6.888;2023-04-27T06:53:38;101336.75;;;10.48;53.91
10460;BME280;54412;51.206;6.888;2023-04-27T06:56:05;101335.75;;;10.74;52.87
10460;BME280;54412;51.206;6.888;2023-04-27T06:58:31;101336.34;;;10.80;52.54
10460;BME280;54412;51.206;6.888;2023-04-27T07:00:57;101325.56;;;10.65;53.14
10460;BME280;54412;51.206;6.888;2023-04-27T07:03:23;101334.56;;;10.59;53.31
10460;BME280;54412;51.206;6.888;2023-04-27T07:05:48;101329.78;;;10.69;53.65
10460;BME280;54412;51.206;6.888;2023-04-27T07:08:16;101334.09;;;10.93;53.04
10460;BME280;54412;51.206;6.888;2023-04-27T07:10:41;101332.91;;;11.00;51.77
10460;BME280;54412;51.206;6.888;2023-04-27T07:13:07;101333.09;;;11.17;51.71
10460;BME280;54412;51.206;6.888;2023-04-27T07:15:33;101329.91;;;11.09;51.22
10460;BME280;54412;51.206;6.888;2023-04-27T07:17:59;101336.59;;;11.17;51.10
10460;BME280;54412;51.206;6.888;2023-04-27T07:20:24;101339.31;;;11.36;50.47
10460;BME280;54412;51.206;6.888;2023-04-27T07:22:51;101338.94;;;11.45;49.81
10460;BME280;54412;51.206;6.888;2023-04-27T07:25:16;101334.47;;;11.47;49.44
10460;BME280;54412;51.206;6.888;2023-04-27T07:27:42;101331.28;;;11.59;48.43
10460;BME280;54412;51.206;6.888;2023-04-27T07:30:08;101328.06;;;11.52;48.68
10460;BME280;54412;51.206;6.888;2023-04-27T07:32:41;101329.16;;;11.47;47.93
10460;BME280;54412;51.206;6.888;2023-04-27T07:35:07;101334.09;;;11.76;48.07
10460;BME280;54412;51.206;6.888;2023-04-27T07:37:37;101336.53;;;11.81;47.63
10460;BME280;54412;51.206;6.888;2023-04-27T07:40:05;101332.81;;;12.05;47.83
10460;BME280;54412;51.206;6.888;2023-04-27T07:42:39;101333.53;;;12.08;47.03
10460;BME280;54412;51.206;6.888;2023-04-27T07:45:10;101341.00;;;12.37;47.25
10460;BME280;54412;51.206;6.888;2023-04-27T07:47:36;101341.44;;;12.28;46.72
10460;BME280;54412;51.206;6.888;2023-04-27T07:50:02;101344.06;;;12.47;46.20
10460;BME280;54412;51.206;6.888;2023-04-27T07:52:29;101343.00;;;12.51;46.26
10460;BME280;54412;51.206;6.888;2023-04-27T07:54:55;101334.84;;;12.55;45.39
10460;BME280;54412;51.206;6.888;2023-04-27T07:57:20;101339.28;;;12.55;46.07
10460;BME280;54412;51.206;6.888;2023-04-27T07:59:46;101336.56;;;12.56;44.66
10460;BME280;54412;51.206;6.888;2023-04-27T08:02:12;101336.75;;;12.52;45.76
10460;BME280;54412;51.206;6.888;2023-04-27T08:04:37;101338.13;;;12.60;46.16
10460;BME280;54412;51.206;6.888;2023-04-27T08:07:03;101334.03;;;12.91;46.04
10460;BME280;54412;51.206;6.888;2023-04-27T08:09:29;101334.72;;;13.13;45.53
10460;BME280;54412;51.206;6.888;2023-04-27T08:11:56;101327.94;;;13.24;44.72
10460;BME280;54412;51.206;6.888;2023-04-27T08:14:22;101330.34;;;13.12;43.19
10460;BME280;54412;51.206;6.888;2023-04-27T08:16:48;101322.91;;;13.20;42.96
10460;BME280;54412;51.206;6.888;2023-04-27T08:19:13;101323.06;;;13.34;42.85
10460;BME280;54412;51.206;6.888;2023-04-27T08:21:39;101319.94;;;13.43;41.85
10460;BME280;54412;51.206;6.888;2023-04-27T08:24:05;101321.75;;;13.25;42.66
10460;BME280;54412;51.206;6.888;2023-04-27T08:26:32;101316.91;;;12.98;42.06
10460;BME280;54412;51.206;6.888;2023-04-27T08:28:58;101315.50;;;13.43;41.83
10460;BME280;54412;51.206;6.888;2023-04-27T08:31:26;101319.22;;;13.56;42.15
10460;BME280;54412;51.206;6.888;2023-04-27T08:33:52;101319.44;;;13.69;41.56
10460;BME280;54412;51.206;6.888;2023-04-27T08:36:21;101310.03;;;13.81;41.55
10460;BME280;54412;51.206;6.888;2023-04-27T08:38:52;101307.44;;;13.79;41.39
10460;BME280;54412;51.206;6.888;2023-04-27T08:41:22;101297.28;;;13.87;41.20
10460;BME280;54412;51.206;6.888;2023-04-27T08:43:50;101295.59;;;13.86;41.91
10460;BME280;54412;51.206;6.888;2023-04-27T08:46:24;101302.94;;;13.81;40.87
10460;BME280;54412;51.206;6.888;2023-04-27T08:48:53;101298.19;;;14.03;39.08
10460;BME280;54412;51.206;6.888;2023-04-27T08:51:20;101298.56;;;14.13;38.39
10460;BME280;54412;51.206;6.888;2023-04-27T08:53:52;101298.19;;;14.03;39.83
10460;BME280;54412;51.206;6.888;2023-04-27T08:56:19;101302.38;;;14.07;38.97
10460;BME280;54412;51.206;6.888;2023-04-27T08:58:48;101304.31;;;14.21;39.16
10460;BME280;54412;51.206;6.888;2023-04-27T09:01:14;101300.78;;;14.20;39.85
10460;BME280;54412;51.206;6.888;2023-04-27T09:03:41;101303.53;;;14.19;40.25
10460;BME280;54412;51.206;6.888;2023-04-27T09:06:07;101298.06;;;14.22;39.65
10460;BME280;54412;51.206;6.888;2023-04-27T09:08:45;101295.97;;;14.44;38.65
10460;BME280;54412;51.206;6.888;2023-04-27T09:11:13;101289.81;;;14.28;39.66
10460;BME280;54412;51.206;6.888;2023-04-27T09:13:41;101287.22;;;14.57;38.67
10460;BME280;54412;51.206;6.888;2023-04-27T09:16:12;101291.53;;;14.60;39.20
10460;BME280;54412;51.206;6.888;2023-04-27T09:18:42;101288.53;;;14.66;39.84
10460;BME280;54412;51.206;6.888;2023-04-27T09:21:09;101288.50;;;14.82;39.01
10460;BME280;54412;51.206;6.888;2023-04-27T09:23:38;101285.84;;;14.82;37.89
10460;BME280;54412;51.206;6.888;2023-04-27T09:26:07;101286.69;;;14.98;38.67
10460;BME280;54412;51.206;6.888;2023-04-27T09:28:37;101281.94;;;14.73;38.76
10460;BME280;54412;51.206;6.888;2023-04-27T09:31:03;101281.16;;;14.71;38.88
10460;BME280;54412;51.206;6.888;2023-04-27T09:33:32;101279.09;;;14.45;39.32
10460;BME280;54412;51.206;6.888;2023-04-27T09:36:03;101280.22;;;14.88;39.94
10460;BME280;54412;51.206;6.888;2023-04-27T09:38:30;101273.34;;;14.84;37.79
10460;BME280;54412;51.206;6.888;2023-04-27T09:40:56;101269.78;;;15.14;40.09
10460;BME280;54412;51.206;6.888;2023-04-27T09:43:22;101281.28;;;14.99;38.45
10460;BME280;54412;51.206;6.888;2023-04-27T09:45:50;101279.84;;;14.94;38.24
10460;BME280;54412;51.206;6.888;2023-04-27T09:48:16;101275.25;;;15.11;37.29
10460;BME280;54412;51.206;6.888;2023-04-27T09:50:45;101277.06;;;15.11;37.97
10460;BME280;54412;51.206;6.888;2023-04-27T09:53:14;101280.31;;;15.45;37.94
10460;BME280;54412;51.206;6.888;2023-04-27T09:59:16;101268.63;;;15.78;37.95
10460;BME280;54412;51.206;6.888;2023-04-27T10:01:50;101259.75;;;16.05;37.48
10460;BME280;54412;51.206;6.888;2023-04-27T10:07:25;101259.81;;;16.32;36.11
10460;BME280;54412;51.206;6.888;2023-04-27T10:09:51;101259.47;;;16.24;36.03
10460;BME280;54412;51.206;6.888;2023-04-27T10:12:20;101254.88;;;16.40;35.65
10460;BME280;54412;51.206;6.888;2023-04-27T10:14:56;101256.81;;;16.10;35.65
10460;BME280;54412;51.206;6.888;2023-04-27T10:17:34;101252.56;;;15.93;36.29
10460;BME280;54412;51.206;6.888;2023-04-27T10:20:04;101247.44;;;15.90;36.04
10460;BME280;54412;51.206;6.888;2023-04-27T10:22:46;101245.91;;;15.86;36.21
10460;BME280;54412;51.206;6.888;2023-04-27T10:25:20;101238.59;;;15.76;37.16
10460;BME280;54412;51.206;6.888;2023-04-27T10:27:52;101231.53;;;15.75;37.14
10460;BME280;54412;51.206;6.888;2023-04-27T10:30:21;101234.69;;;15.81;37.09
10460;BME280;54412;51.206;6.888;2023-04-27T10:32:55;101230.09;;;15.55;36.33
10460;BME280;54412;51.206;6.888;2023-04-27T10:35:33;101232.78;;;15.55;36.16
10460;BME280;54412;51.206;6.888;2023-04-27T10:38:15;101230.97;;;15.41;36.17
10460;BME280;54412;51.206;6.888;2023-04-27T10:40:44;101233.53;;;15.57;35.65
10460;BME280;54412;51.206;6.888;2023-04-27T10:43:16;101234.56;;;15.54;35.98
10460;BME280;54412;51.206;6.888;2023-04-27T10:45:43;101227.19;;;15.59;35.03
10460;BME280;54412;51.206;6.888;2023-04-27T10:48:12;101221.94;;;15.58;35.10
10460;BME280;54412;51.206;6.888;2023-04-27T10:50:40;101216.75;;;15.85;36.02
10460;BME280;54412;51.206;6.888;2023-04-27T10:53:07;101213.06;;;16.14;35.47
10460;BME280;54412;51.206;6.888;2023-04-27T10:55:34;101222.00;;;16.27;34.76
10460;BME280;54412;51.206;6.888;2023-04-27T10:58:01;101217.38;;;16.02;33.83
10460;BME280;54412;51.206;6.888;2023-04-27T11:03:13;101227.78;;;16.19;34.00
10460;BME280;54412;51.206;6.888;2023-04-27T11:05:42;101226.66;;;16.23;33.95
10460;BME280;54412;51.206;6.888;2023-04-27T11:08:15;101216.53;;;16.42;34.70
10460;BME280;54412;51.206;6.888;2023-04-27T11:10:48;101218.34;;;16.56;34.08
10460;BME280;54412;51.206;6.888;2023-04-27T11:13:18;101220.47;;;16.37;34.86
10460;BME280;54412;51.206;6.888;2023-04-27T11:15:50;101224.88;;;16.24;35.21
10460;BME280;54412;51.206;6.888;2023-04-27T11:18:18;101220.03;;;16.16;33.79
10460;BME280;54412;51.206;6.888;2023-04-27T11:20:50;101213.84;;;16.42;33.17
10460;BME280;54412;51.206;6.888;2023-04-27T11:23:27;101213.63;;;16.33;34.97
10460;BME280;54412;51.206;6.888;2023-04-27T11:25:54;101215.03;;;16.38;34.54
10460;BME280;54412;51.206;6.888;2023-04-27T11:28:23;101202.31;;;16.70;34.66
10460;BME280;54412;51.206;6.888;2023-04-27T11:30:59;101208.19;;;17.14;33.23
10460;BME280;54412;51.206;6.888;2023-04-27T11:33:26;101198.38;;;16.76;33.72
10460;BME280;54412;51.206;6.888;2023-04-27T11:35:52;101197.19;;;17.19;33.15
10460;BME280;54412;51.206;6.888;2023-04-27T11:38:19;101199.97;;;17.30;32.79
10460;BME280;54412;51.206;6.888;2023-04-27T11:40:58;101194.69;;;16.91;33.60
10460;BME280;54412;51.206;6.888;2023-04-27T11:43:25;101187.06;;;17.24;33.90
10460;BME280;54412;51.206;6.888;2023-04-27T11:45:51;101190.09;;;17.57;33.69
10460;BME280;54412;51.206;6.888;2023-04-27T11:48:18;101183.47;;;17.75;33.23
10460;BME280;54412;51.206;6.888;2023-04-27T11:50:47;101187.19;;;17.85;32.52
10460;BME280;54412;51.206;6.888;2023-04-27T11:53:14;101168.91;;;18.28;32.00
10460;BME280;54412;51.206;6.888;2023-04-27T11:55:40;101167.84;;;18.30;32.32
10460;BME280;54412;51.206;6.888;2023-04-27T11:58:12;101165.28;;;18.29;30.78
10460;BME280;54412;51.206;6.888;2023-04-27T12:00:39;101165.59;;;17.88;31.25
10460;BME280;54412;51.206;6.888;2023-04-27T12:03:05;101169.03;;;18.26;31.63
10460;BME280;54412;51.206;6.888;2023-04-27T12:05:30;101165.59;;;18.24;32.48
10460;BME280;54412;51.206;6.888;2023-04-27T12:07:56;101169.19;;;18.72;30.86
10460;BME280;54412;51.206;6.888;2023-04-27T12:10:23;101166.69;;;18.93;30.67
10460;BME280;54412;51.206;6.888;2023-04-27T12:12:49;101166.00;;;19.02;29.67
10460;BME280;54412;51.206;6.888;2023-04-27T12:15:15;101162.84;;;18.73;30.00
10460;BME280;54412;51.206;6.888;2023-04-27T12:17:41;101156.28;;;18.66;29.43
10460;BME280;54412;51.206;6.888;2023-04-27T12:20:07;101157.22;;;18.18;28.44
10460;BME280;54412;51.206;6.888;2023-04-27T12:22:33;101156.22;;;17.95;29.20
10460;BME280;54412;51.206;6.888;2023-04-27T12:24:58;101152.06;;;17.91;29.39
10460;BME280;54412;51.206;6.888;2023-04-27T12:27:24;101145.16;;;18.48;30.29
10460;BME280;54412;51.206;6.888;2023-04-27T12:29:51;101150.06;;;18.65;29.42
10460;BME280;54412;51.206;6.888;2023-04-27T12:32:19;101147.69;;;18.73;29.07
10460;BME280;54412;51.206;6.888;2023-04-27T12:34:45;101136.47;;;18.92;28.95
10460;BME280;54412;51.206;6.888;2023-04-27T12:37:11;101137.78;;;18.87;29.26
10460;BME280;54412;51.206;6.888;2023-04-27T12:39:37;101143.41;;;18.71;30.54
10460;BME280;54412;51.206;6.888;2023-04-27T12:42:03;101141.53;;;18.84;30.62
10460;BME280;54412;51.206;6.888;2023-04-27T12:44:29;101144.22;;;18.60;30.40
10460;BME280;54412;51.206;6.888;2023-04-27T12:46:55;101139.63;;;18.62;29.70
10460;BME280;54412;51.206;6.888;2023-04-27T12:49:21;101143.47;;;18.47;30.37
10460;BME280;54412;51.206;6.888;2023-04-27T12:51:46;101141.66;;;18.35;30.88
10460;BME280;54412;51.206;6.888;2023-04-27T12:54:16;101140.56;;;18.50;30.36
10460;BME280;54412;51.206;6.888;2023-04-27T12:56:42;101142.94;;;17.70;30.34
10460;BME280;54412;51.206;6.888;2023-04-27T12:59:08;101142.00;;;17.95;30.48
10460;BME280;54412;51.206;6.888;2023-04-27T13:01:33;101144.19;;;17.77;30.22
10460;BME280;54412;51.206;6.888;2023-04-27T13:04:02;101137.50;;;18.08;31.00
10460;BME280;54412;51.206;6.888;2023-04-27T13:06:28;101134.94;;;18.30;29.58